sensor_id;sensor_type;location;lat;lon;timestamp;pressure;altitude;pressure_sealevel;temperature;humidity
62946;BME280;52164;52.212;-1.010;2023-04-15T00:01:07;100057.40;;;6.95;78.67
62946;BME280;52164;52.212;-1.010;2023-04-15T00:03:34;100057.20;;;6.92;78.19
62946;BME280;52164;52.212;-1.010;2023-04-15T00:06:00;100062.49;;;6.88;78.22
62946;BME280;52164;52.212;-1.010;2023-04-15T00:08:25;100063.17;;;6.84;78.32
62946;BME280;52164;52.212;-1.010;2023-04-15T00:10:51;100065.99;;;6.82;78.53
62946;BME280;52164;52.212;-1.010;2023-04-15T00:13:16;100066.14;;;6.79;78.26
62946;BME280;52164;52.212;-1.010;2023-04-15T00:15:42;100064.88;;;6.75;78.45
62946;BME280;52164;52.212;-1.010;2023-04-15T00:18:07;100066.81;;;6.73;78.86
62946;BME280;52164;52.212;-1.010;2023-04-15T00:20:33;100068.73;;;6.70;78.71
62946;BME280;52164;52.212;-1.010;2023-04-15T00:22:58;100070.50;;;6.69;78.87
62946;BME280;52164;52.212;-1.010;2023-04-15T00:25:24;100071.02;;;6.68;79.10
62946;BME280;52164;52.212;-1.010;2023-04-15T00:27:50;100072.62;;;6.67;79.11
62946;BME280;52164;52.212;-1.010;2023-04-15T00:30:15;100071.52;;;6.64;79.12
62946;BME280;52164;52.212;-1.010;2023-04-15T00:32:42;100072.73;;;6.62;79.19
62946;BME280;52164;52.212;-1.010;2023-04-15T00:35:08;100071.30;;;6.59;78.95
62946;BME280;52164;52.212;-1.010;2023-04-15T00:37:34;100075.53;;;6.57;79.35
62946;BME280;52164;52.212;-1.010;2023-04-15T00:39:59;100079.24;;;6.55;79.40
62946;BME280;52164;52.212;-1.010;2023-04-15T00:42:25;100079.06;;;6.54;79.08
62946;BME280;52164;52.212;-1.010;2023-04-15T00:44:50;100075.86;;;6.53;79.16
62946;BME280;52164;52.212;-1.010;2023-04-15T00:47:18;100084.38;;;6.54;79.17
62946;BME280;52164;52.212;-1.010;2023-04-15T00:49:44;100087.93;;;6.55;79.60
62946;BME280;52164;52.212;-1.010;2023-04-15T00:52:09;100091.31;;;6.58;79.62
62946;BME280;52164;52.212;-1.010;2023-04-15T00:54:34;100094.36;;;6.62;79.58
62946;BME280;52164;52.212;-1.010;2023-04-15T00:57:00;100098.84;;;6.66;79.45
62946;BME280;52164;52.212;-1.010;2023-04-15T00:59:26;100107.76;;;6.71;79.34
62946;BME280;52164;52.212;-1.010;2023-04-15T01:01:51;100108.49;;;6.73;78.94
62946;BME280;52164;52.212;-1.010;2023-04-15T01:04:17;100112.05;;;6.77;79.35
62946;BME280;52164;52.212;-1.010;2023-04-15T01:06:42;100113.15;;;6.79;79.31
62946;BME280;52164;52.212;-1.010;2023-04-15T01:09:07;100115.83;;;6.80;79.05
62946;BME280;52164;52.212;-1.010;2023-04-15T01:11:33;100120.48;;;6.84;79.10
62946;BME280;52164;52.212;-1.010;2023-04-15T01:13:59;100122.61;;;6.86;79.18
62946;BME280;52164;52.212;-1.010;2023-04-15T01:16:25;100131.14;;;6.86;79.00
62946;BME280;52164;52.212;-1.010;2023-04-15T01:18:51;100134.84;;;6.84;79.09
62946;BME280;52164;52.212;-1.010;2023-04-15T01:21:16;100138.54;;;6.81;79.01
62946;BME280;52164;52.212;-1.010;2023-04-15T01:23:42;100140.98;;;6.79;78.75
62946;BME280;52164;52.212;-1.010;2023-04-15T01:26:08;100146.10;;;6.75;78.83
62946;BME280;52164;52.212;-1.010;2023-04-15T01:28:34;100150.69;;;6.71;78.45
62946;BME280;52164;52.212;-1.010;2023-04-15T01:31:08;100156.33;;;6.67;78.32
62946;BME280;52164;52.212;-1.010;2023-04-15T01:33:34;100162.49;;;6.65;78.62
62946;BME280;52164;52.212;-1.010;2023-04-15T01:36:00;100169.22;;;6.64;78.52
62946;BME280;52164;52.212;-1.010;2023-04-15T01:38:26;100170.09;;;6.62;78.64
62946;BME280;52164;52.212;-1.010;2023-04-15T01:40:52;100172.58;;;6.63;78.79
62946;BME280;52164;52.212;-1.010;2023-04-15T01:43:18;100173.63;;;6.62;78.84
62946;BME280;52164;52.212;-1.010;2023-04-15T01:45:43;100175.40;;;6.62;78.79
62946;BME280;52164;52.212;-1.010;2023-04-15T01:48:09;100174.89;;;6.63;79.13
62946;BME280;52164;52.212;-1.010;2023-04-15T01:50:34;100175.77;;;6.62;79.18
62946;BME280;52164;52.212;-1.010;2023-04-15T01:53:00;100179.48;;;6.62;79.00
62946;BME280;52164;52.212;-1.010;2023-04-15T01:55:26;100183.20;;;6.62;79.07
62946;BME280;52164;52.212;-1.010;2023-04-15T01:57:51;100187.84;;;6.64;79.16
62946;BME280;52164;52.212;-1.010;2023-04-15T02:00:16;100193.00;;;6.64;79.34
62946;BME280;52164;52.212;-1.010;2023-04-15T02:02:42;100196.90;;;6.65;79.39
62946;BME280;52164;52.212;-1.010;2023-04-15T02:05:07;100199.02;;;6.65;79.33
62946;BME280;52164;52.212;-1.010;2023-04-15T02:07:32;100203.80;;;6.64;79.48
62946;BME280;52164;52.212;-1.010;2023-04-15T02:09:58;100211.45;;;6.65;79.07
62946;BME280;52164;52.212;-1.010;2023-04-15T02:12:23;100210.89;;;6.64;79.16
62946;BME280;52164;52.212;-1.010;2023-04-15T02:14:49;100215.33;;;6.65;79.06
62946;BME280;52164;52.212;-1.010;2023-04-15T02:17:14;100213.23;;;6.66;78.86
62946;BME280;52164;52.212;-1.010;2023-04-15T02:19:40;100219.08;;;6.66;79.09
62946;BME280;52164;52.212;-1.010;2023-04-15T02:22:05;100221.35;;;6.64;79.04
62946;BME280;52164;52.212;-1.010;2023-04-15T02:24:33;100219.19;;;6.62;78.92
62946;BME280;52164;52.212;-1.010;2023-04-15T02:26:58;100223.97;;;6.60;78.51
62946;BME280;52164;52.212;-1.010;2023-04-15T02:29:23;100224.67;;;6.59;78.88
62946;BME280;52164;52.212;-1.010;2023-04-15T02:31:48;100226.24;;;6.58;78.71
62946;BME280;52164;52.212;-1.010;2023-04-15T02:34:14;100227.65;;;6.56;78.77
62946;BME280;52164;52.212;-1.010;2023-04-15T02:36:39;100231.21;;;6.57;78.78
62946;BME280;52164;52.212;-1.010;2023-04-15T02:39:05;100234.23;;;6.58;78.96
62946;BME280;52164;52.212;-1.010;2023-04-15T02:41:30;100239.23;;;6.60;79.08
62946;BME280;52164;52.212;-1.010;2023-04-15T02:43:55;100236.92;;;6.61;78.86
62946;BME280;52164;52.212;-1.010;2023-04-15T02:46:21;100240.31;;;6.62;79.00
62946;BME280;52164;52.212;-1.010;2023-04-15T02:48:48;100241.22;;;6.63;79.07
62946;BME280;52164;52.212;-1.010;2023-04-15T02:51:14;100249.20;;;6.64;78.99
62946;BME280;52164;52.212;-1.010;2023-04-15T02:53:40;100254.34;;;6.63;79.02
62946;BME280;52164;52.212;-1.010;2023-04-15T02:56:05;100260.01;;;6.64;78.92
62946;BME280;52164;52.212;-1.010;2023-04-15T02:58:31;100261.44;;;6.64;79.18
62946;BME280;52164;52.212;-1.010;2023-04-15T03:00:56;100268.00;;;6.65;79.07
62946;BME280;52164;52.212;-1.010;2023-04-15T03:03:21;100268.35;;;6.64;79.15
62946;BME280;52164;52.212;-1.010;2023-04-15T03:05:47;100273.48;;;6.64;79.04
62946;BME280;52164;52.212;-1.010;2023-04-15T03:08:12;100276.12;;;6.62;79.33
62946;BME280;52164;52.212;-1.010;2023-04-15T03:10:39;100277.54;;;6.61;79.11
62946;BME280;52164;52.212;-1.010;2023-04-15T03:13:04;100279.27;;;6.58;78.89
62946;BME280;52164;52.212;-1.010;2023-04-15T03:15:31;100282.75;;;6.52;78.93
62946;BME280;52164;52.212;-1.010;2023-04-15T03:17:56;100290.69;;;6.50;79.07
62946;BME280;52164;52.212;-1.010;2023-04-15T03:20:22;100298.11;;;6.47;79.18
62946;BME280;52164;52.212;-1.010;2023-04-15T03:22:48;100309.44;;;6.46;79.22
62946;BME280;52164;52.212;-1.010;2023-04-15T03:25:13;100312.44;;;6.45;79.34
62946;BME280;52164;52.212;-1.010;2023-04-15T03:27:38;100319.36;;;6.46;79.31
62946;BME280;52164;52.212;-1.010;2023-04-15T03:30:04;100314.02;;;6.44;79.32
62946;BME280;52164;52.212;-1.010;2023-04-15T03:32:30;100317.58;;;6.45;79.33
62946;BME280;52164;52.212;-1.010;2023-04-15T03:34:56;100317.05;;;6.45;79.85
62946;BME280;52164;52.212;-1.010;2023-04-15T03:37:21;100316.70;;;6.45;79.77
62946;BME280;52164;52.212;-1.010;2023-04-15T03:39:46;100320.05;;;6.45;79.73
62946;BME280;52164;52.212;-1.010;2023-04-15T03:42:12;100326.59;;;6.43;79.31
62946;BME280;52164;52.212;-1.010;2023-04-15T03:44:37;100332.24;;;6.42;79.45
62946;BME280;52164;52.212;-1.010;2023-04-15T03:47:02;100337.57;;;6.42;79.76
62946;BME280;52164;52.212;-1.010;2023-04-15T03:49:29;100343.77;;;6.42;79.49
62946;BME280;52164;52.212;-1.010;2023-04-15T03:51:55;100342.16;;;6.41;79.81
62946;BME280;52164;52.212;-1.010;2023-04-15T03:54:20;100347.14;;;6.42;79.71
62946;BME280;52164;52.212;-1.010;2023-04-15T03:56:45;100348.01;;;6.41;79.61
62946;BME280;52164;52.212;-1.010;2023-04-15T03:59:10;100351.36;;;6.40;80.08
62946;BME280;52164;52.212;-1.010;2023-04-15T04:01:36;100350.48;;;6.40;80.02
62946;BME280;52164;52.212;-1.010;2023-04-15T04:04:01;100348.86;;;6.39;80.07
62946;BME280;52164;52.212;-1.010;2023-04-15T04:06:26;100355.04;;;6.37;79.93
62946;BME280;52164;52.212;-1.010;2023-04-15T04:08:52;100356.39;;;6.33;79.99
62946;BME280;52164;52.212;-1.010;2023-04-15T04:11:17;100359.38;;;6.31;80.12
62946;BME280;52164;52.212;-1.010;2023-04-15T04:13:42;100362.77;;;6.32;80.29
62946;BME280;52164;52.212;-1.010;2023-04-15T04:16:07;100365.44;;;6.33;80.42
62946;BME280;52164;52.212;-1.010;2023-04-15T04:18:33;100369.55;;;6.35;80.31
62946;BME280;52164;52.212;-1.010;2023-04-15T04:20:58;100375.06;;;6.37;80.34
62946;BME280;52164;52.212;-1.010;2023-04-15T04:23:24;100379.52;;;6.38;80.55
62946;BME280;52164;52.212;-1.010;2023-04-15T04:25:50;100385.23;;;6.40;80.41
62946;BME280;52164;52.212;-1.010;2023-04-15T04:28:16;100388.95;;;6.41;80.50
62946;BME280;52164;52.212;-1.010;2023-04-15T04:30:42;100391.65;;;6.42;80.50
62946;BME280;52164;52.212;-1.010;2023-04-15T04:33:07;100393.45;;;6.45;80.49
62946;BME280;52164;52.212;-1.010;2023-04-15T04:35:35;100402.70;;;6.46;80.44
62946;BME280;52164;52.212;-1.010;2023-04-15T04:38:02;100401.98;;;6.47;80.63
62946;BME280;52164;52.212;-1.010;2023-04-15T04:40:27;100407.71;;;6.50;80.54
62946;BME280;52164;52.212;-1.010;2023-04-15T04:42:53;100414.66;;;6.52;80.71
62946;BME280;52164;52.212;-1.010;2023-04-15T04:45:18;100419.14;;;6.55;80.68
62946;BME280;52164;52.212;-1.010;2023-04-15T04:47:44;100424.66;;;6.57;80.70
62946;BME280;52164;52.212;-1.010;2023-04-15T04:50:12;100426.64;;;6.58;80.38
62946;BME280;52164;52.212;-1.010;2023-04-15T04:52:38;100429.65;;;6.59;80.54
62946;BME280;52164;52.212;-1.010;2023-04-15T04:55:03;100432.69;;;6.61;80.83
62946;BME280;52164;52.212;-1.010;2023-04-15T04:57:28;100438.39;;;6.63;80.46
62946;BME280;52164;52.212;-1.010;2023-04-15T04:59:54;100441.44;;;6.65;80.57
62946;BME280;52164;52.212;-1.010;2023-04-15T05:02:19;100447.51;;;6.67;80.66
62946;BME280;52164;52.212;-1.010;2023-04-15T05:04:45;100454.45;;;6.68;80.72
62946;BME280;52164;52.212;-1.010;2023-04-15T05:07:10;100463.67;;;6.69;80.58
62946;BME280;52164;52.212;-1.010;2023-04-15T05:09:36;100471.12;;;6.69;80.28
62946;BME280;52164;52.212;-1.010;2023-04-15T05:12:03;100476.98;;;6.69;80.34
62946;BME280;52164;52.212;-1.010;2023-04-15T05:14:28;100481.38;;;6.67;80.32
62946;BME280;52164;52.212;-1.010;2023-04-15T05:16:54;100487.39;;;6.66;80.38
62946;BME280;52164;52.212;-1.010;2023-04-15T05:19:19;100489.14;;;6.64;80.63
62946;BME280;52164;52.212;-1.010;2023-04-15T05:21:44;100495.14;;;6.62;80.53
62946;BME280;52164;52.212;-1.010;2023-04-15T05:24:10;100499.70;;;6.61;80.53
62946;BME280;52164;52.212;-1.010;2023-04-15T05:26:35;100507.48;;;6.59;80.58
62946;BME280;52164;52.212;-1.010;2023-04-15T05:29:01;100518.14;;;6.58;80.61
62946;BME280;52164;52.212;-1.010;2023-04-15T05:31:26;100525.56;;;6.58;80.27
62946;BME280;52164;52.212;-1.010;2023-04-15T05:33:51;100526.24;;;6.56;80.56
62946;BME280;52164;52.212;-1.010;2023-04-15T05:36:18;100528.35;;;6.54;80.58
62946;BME280;52164;52.212;-1.010;2023-04-15T05:38:44;100529.05;;;6.53;80.62
62946;BME280;52164;52.212;-1.010;2023-04-15T05:41:09;100535.59;;;6.52;80.63
62946;BME280;52164;52.212;-1.010;2023-04-15T05:43:34;100538.20;;;6.50;80.53
62946;BME280;52164;52.212;-1.010;2023-04-15T05:46:00;100542.63;;;6.49;80.12
62946;BME280;52164;52.212;-1.010;2023-04-15T05:48:25;100546.20;;;6.51;80.53
62946;BME280;52164;52.212;-1.010;2023-04-15T05:50:52;100548.52;;;6.52;80.60
62946;BME280;52164;52.212;-1.010;2023-04-15T05:53:18;100555.69;;;6.56;80.63
62946;BME280;52164;52.212;-1.010;2023-04-15T05:55:43;100559.29;;;6.60;80.44
62946;BME280;52164;52.212;-1.010;2023-04-15T05:58:08;100568.57;;;6.63;80.06
62946;BME280;52164;52.212;-1.010;2023-04-15T06:00:33;100578.93;;;6.68;80.45
62946;BME280;52164;52.212;-1.010;2023-04-15T06:02:59;100585.79;;;6.74;80.66
62946;BME280;52164;52.212;-1.010;2023-04-15T06:05:24;100596.00;;;6.81;80.52
62946;BME280;52164;52.212;-1.010;2023-04-15T06:07:50;100602.66;;;6.86;80.45
62946;BME280;52164;52.212;-1.010;2023-04-15T06:10:15;100612.70;;;6.94;80.21
62946;BME280;52164;52.212;-1.010;2023-04-15T06:12:40;100612.97;;;6.99;80.27
62946;BME280;52164;52.212;-1.010;2023-04-15T06:15:06;100615.70;;;7.02;80.25
62946;BME280;52164;52.212;-1.010;2023-04-15T06:17:33;100615.06;;;7.08;80.25
62946;BME280;52164;52.212;-1.010;2023-04-15T06:19:59;100620.81;;;7.11;79.99
62946;BME280;52164;52.212;-1.010;2023-04-15T06:22:24;100624.23;;;7.14;80.02
62946;BME280;52164;52.212;-1.010;2023-04-15T06:24:50;100628.48;;;7.15;79.50
62946;BME280;52164;52.212;-1.010;2023-04-15T06:27:15;100630.27;;;7.15;79.45
62946;BME280;52164;52.212;-1.010;2023-04-15T06:29:41;100636.67;;;7.16;79.54
62946;BME280;52164;52.212;-1.010;2023-04-15T06:32:06;100640.05;;;7.16;79.56
62946;BME280;52164;52.212;-1.010;2023-04-15T06:34:32;100643.95;;;7.16;79.35
62946;BME280;52164;52.212;-1.010;2023-04-15T06:37:00;100647.34;;;7.16;79.12
62946;BME280;52164;52.212;-1.010;2023-04-15T06:39:26;100651.25;;;7.18;79.66
62946;BME280;52164;52.212;-1.010;2023-04-15T06:41:51;100657.14;;;7.20;79.43
62946;BME280;52164;52.212;-1.010;2023-04-15T06:44:17;100663.77;;;7.22;79.25
62946;BME280;52164;52.212;-1.010;2023-04-15T06:46:42;100667.56;;;7.27;79.32
62946;BME280;52164;52.212;-1.010;2023-04-15T06:49:09;100668.52;;;7.32;78.96
62946;BME280;52164;52.212;-1.010;2023-04-15T06:51:34;100676.08;;;7.38;79.43
62946;BME280;52164;52.212;-1.010;2023-04-15T06:54:00;100677.05;;;7.45;79.10
62946;BME280;52164;52.212;-1.010;2023-04-15T06:56:26;100680.02;;;7.52;79.32
62946;BME280;52164;52.212;-1.010;2023-04-15T06:58:52;100685.08;;;7.59;79.29
62946;BME280;52164;52.212;-1.010;2023-04-15T07:01:17;100689.45;;;7.66;78.74
62946;BME280;52164;52.212;-1.010;2023-04-15T07:03:42;100691.14;;;7.70;78.44
62946;BME280;52164;52.212;-1.010;2023-04-15T07:06:08;100699.52;;;7.75;78.25
62946;BME280;52164;52.212;-1.010;2023-04-15T07:08:34;100701.02;;;7.78;78.30
62946;BME280;52164;52.212;-1.010;2023-04-15T07:10:59;100708.58;;;7.86;78.12
62946;BME280;52164;52.212;-1.010;2023-04-15T07:13:25;100708.52;;;7.94;78.52
62946;BME280;52164;52.212;-1.010;2023-04-15T07:15:51;100711.29;;;8.02;78.17
62946;BME280;52164;52.212;-1.010;2023-04-15T07:18:16;100717.09;;;8.10;77.94
62946;BME280;52164;52.212;-1.010;2023-04-15T07:20:41;100725.69;;;8.15;77.28
62946;BME280;52164;52.212;-1.010;2023-04-15T07:23:07;100724.52;;;8.21;77.39
62946;BME280;52164;52.212;-1.010;2023-04-15T07:25:32;100727.96;;;8.27;77.39
62946;BME280;52164;52.212;-1.010;2023-04-15T07:27:57;100735.87;;;8.33;77.17
62946;BME280;52164;52.212;-1.010;2023-04-15T07:30:23;100737.13;;;8.34;76.64
62946;BME280;52164;52.212;-1.010;2023-04-15T07:32:48;100743.70;;;8.32;76.14
62946;BME280;52164;52.212;-1.010;2023-04-15T07:35:13;100747.94;;;8.31;76.78
62946;BME280;52164;52.212;-1.010;2023-04-15T07:37:39;100757.52;;;8.30;76.56
62946;BME280;52164;52.212;-1.010;2023-04-15T07:40:04;100766.73;;;8.28;76.59
62946;BME280;52164;52.212;-1.010;2023-04-15T07:42:33;100771.73;;;8.28;76.33
62946;BME280;52164;52.212;-1.010;2023-04-15T07:44:58;100777.95;;;8.28;76.36
62946;BME280;52164;52.212;-1.010;2023-04-15T07:47:23;100777.59;;;8.28;76.13
62946;BME280;52164;52.212;-1.010;2023-04-15T07:49:49;100780.48;;;8.32;76.24
62946;BME280;52164;52.212;-1.010;2023-04-15T07:52:15;100782.54;;;8.38;76.18
62946;BME280;52164;52.212;-1.010;2023-04-15T07:54:41;100789.02;;;8.44;76.25
62946;BME280;52164;52.212;-1.010;2023-04-15T07:57:06;100791.59;;;8.49;76.00
62946;BME280;52164;52.212;-1.010;2023-04-15T07:59:32;100791.27;;;8.51;75.82
62946;BME280;52164;52.212;-1.010;2023-04-15T08:01:57;100793.45;;;8.54;75.81
62946;BME280;52164;52.212;-1.010;2023-04-15T08:04:23;100796.91;;;8.60;75.48
62946;BME280;52164;52.212;-1.010;2023-04-15T08:06:48;100799.29;;;8.66;75.45
62946;BME280;52164;52.212;-1.010;2023-04-15T08:09:14;100805.23;;;8.73;75.57
62946;BME280;52164;52.212;-1.010;2023-04-15T08:11:40;100809.95;;;8.79;75.56
62946;BME280;52164;52.212;-1.010;2023-04-15T08:14:05;100818.05;;;8.87;75.24
62946;BME280;52164;52.212;-1.010;2023-04-15T08:16:31;100824.90;;;8.94;75.37
62946;BME280;52164;52.212;-1.010;2023-04-15T08:18:56;100828.20;;;9.03;75.42
62946;BME280;52164;52.212;-1.010;2023-04-15T08:21:22;100831.31;;;9.12;75.11
62946;BME280;52164;52.212;-1.010;2023-04-15T08:23:48;100831.76;;;9.20;74.90
62946;BME280;52164;52.212;-1.010;2023-04-15T08:26:14;100836.64;;;9.26;74.66
62946;BME280;52164;52.212;-1.010;2023-04-15T08:28:40;100843.30;;;9.32;74.18
62946;BME280;52164;52.212;-1.010;2023-04-15T08:31:06;100842.27;;;9.36;74.07
62946;BME280;52164;52.212;-1.010;2023-04-15T08:33:32;100848.52;;;9.39;74.28
62946;BME280;52164;52.212;-1.010;2023-04-15T08:35:57;100850.67;;;9.40;73.95
62946;BME280;52164;52.212;-1.010;2023-04-15T08:38:23;100856.55;;;9.40;73.98
62946;BME280;52164;52.212;-1.010;2023-04-15T08:40:48;100860.80;;;9.38;73.72
62946;BME280;52164;52.212;-1.010;2023-04-15T08:43:17;100861.89;;;9.40;73.76
62946;BME280;52164;52.212;-1.010;2023-04-15T08:45:42;100871.73;;;9.44;73.60
62946;BME280;52164;52.212;-1.010;2023-04-15T08:48:08;100876.41;;;9.49;73.73
62946;BME280;52164;52.212;-1.010;2023-04-15T08:50:34;100883.59;;;9.53;73.38
62946;BME280;52164;52.212;-1.010;2023-04-15T08:53:02;100886.23;;;9.52;73.13
62946;BME280;52164;52.212;-1.010;2023-04-15T08:55:29;100888.90;;;9.49;73.21
62946;BME280;52164;52.212;-1.010;2023-04-15T08:57:57;100890.50;;;9.49;73.38
62946;BME280;52164;52.212;-1.010;2023-04-15T09:00:23;100895.67;;;9.48;73.34
62946;BME280;52164;52.212;-1.010;2023-04-15T09:02:49;100895.81;;;9.45;73.07
62946;BME280;52164;52.212;-1.010;2023-04-15T09:05:14;100902.79;;;9.48;73.16
62946;BME280;52164;52.212;-1.010;2023-04-15T09:07:40;100908.58;;;9.56;73.40
62946;BME280;52164;52.212;-1.010;2023-04-15T09:10:06;100914.88;;;9.62;73.21
62946;BME280;52164;52.212;-1.010;2023-04-15T09:12:33;100920.92;;;9.62;73.62
62946;BME280;52164;52.212;-1.010;2023-04-15T09:14:58;100925.20;;;9.61;73.56
62946;BME280;52164;52.212;-1.010;2023-04-15T09:17:25;100928.44;;;9.65;73.39
62946;BME280;52164;52.212;-1.010;2023-04-15T09:20:08;100930.09;;;9.70;73.38
62946;BME280;52164;52.212;-1.010;2023-04-15T09:22:34;100932.19;;;9.83;73.05
62946;BME280;52164;52.212;-1.010;2023-04-15T09:25:01;100935.35;;;9.97;72.49
62946;BME280;52164;52.212;-1.010;2023-04-15T09:27:26;100936.52;;;10.08;72.36
62946;BME280;52164;52.212;-1.010;2023-04-15T09:29:52;100935.02;;;10.21;72.23
62946;BME280;52164;52.212;-1.010;2023-04-15T09:32:18;100940.90;;;10.39;72.21
62946;BME280;52164;52.212;-1.010;2023-04-15T09:34:45;100944.25;;;10.59;72.12
62946;BME280;52164;52.212;-1.010;2023-04-15T09:37:10;100943.28;;;10.73;71.73
62946;BME280;52164;52.212;-1.010;2023-04-15T09:39:55;100944.64;;;10.91;71.38
62946;BME280;52164;52.212;-1.010;2023-04-15T09:42:20;100947.95;;;11.10;71.21
62946;BME280;52164;52.212;-1.010;2023-04-15T09:44:50;100954.62;;;11.23;70.77
62946;BME280;52164;52.212;-1.010;2023-04-15T09:47:33;100955.39;;;11.37;70.49
62946;BME280;52164;52.212;-1.010;2023-04-15T09:49:58;100961.88;;;11.53;70.26
62946;BME280;52164;52.212;-1.010;2023-04-15T09:52:24;100964.98;;;11.69;69.87
62946;BME280;52164;52.212;-1.010;2023-04-15T09:54:52;100966.23;;;11.78;69.60
62946;BME280;52164;52.212;-1.010;2023-04-15T09:57:20;100967.69;;;11.85;69.35
62946;BME280;52164;52.212;-1.010;2023-04-15T09:59:46;100966.83;;;11.93;69.56
62946;BME280;52164;52.212;-1.010;2023-04-15T10:02:11;100968.11;;;12.06;69.32
62946;BME280;52164;52.212;-1.010;2023-04-15T10:04:39;100972.24;;;12.25;68.57
62946;BME280;52164;52.212;-1.010;2023-04-15T10:07:04;100972.23;;;12.47;68.43
62946;BME280;52164;52.212;-1.010;2023-04-15T10:09:30;100977.05;;;12.70;68.22
62946;BME280;52164;52.212;-1.010;2023-04-15T10:11:57;100976.84;;;12.85;67.67
62946;BME280;52164;52.212;-1.010;2023-04-15T10:14:23;100975.03;;;12.98;67.23
62946;BME280;52164;52.212;-1.010;2023-04-15T10:16:50;100979.13;;;13.10;67.27
62946;BME280;52164;52.212;-1.010;2023-04-15T10:19:17;100979.23;;;13.36;66.83
62946;BME280;52164;52.212;-1.010;2023-04-15T10:21:46;100984.72;;;13.54;66.37
62946;BME280;52164;52.212;-1.010;2023-04-15T10:24:14;100992.03;;;13.64;65.98
62946;BME280;52164;52.212;-1.010;2023-04-15T10:26:40;100989.96;;;13.82;65.41
62946;BME280;52164;52.212;-1.010;2023-04-15T10:29:06;100990.63;;;13.91;65.21
62946;BME280;52164;52.212;-1.010;2023-04-15T10:31:33;100996.56;;;13.87;64.85
62946;BME280;52164;52.212;-1.010;2023-04-15T10:34:00;100999.25;;;13.89;64.29
62946;BME280;52164;52.212;-1.010;2023-04-15T10:36:30;101005.26;;;14.04;64.46
62946;BME280;52164;52.212;-1.010;2023-04-15T10:38:55;101007.97;;;14.29;64.30
62946;BME280;52164;52.212;-1.010;2023-04-15T10:43:50;101016.70;;;14.59;62.45
62946;BME280;52164;52.212;-1.010;2023-04-15T10:46:18;101023.20;;;14.55;62.67
62946;BME280;52164;52.212;-1.010;2023-04-15T10:48:46;101028.30;;;14.46;62.71
62946;BME280;52164;52.212;-1.010;2023-04-15T10:51:12;101031.59;;;14.38;62.48
62946;BME280;52164;52.212;-1.010;2023-04-15T10:53:38;101030.51;;;14.40;62.45
62946;BME280;52164;52.212;-1.010;2023-04-15T10:56:07;101033.18;;;14.41;62.53
62946;BME280;52164;52.212;-1.010;2023-04-15T10:58:41;101036.94;;;14.42;62.42
62946;BME280;52164;52.212;-1.010;2023-04-15T11:01:07;101040.86;;;14.48;62.56
62946;BME280;52164;52.212;-1.010;2023-04-15T11:03:36;101048.88;;;14.56;62.16
62946;BME280;52164;52.212;-1.010;2023-04-15T11:06:03;101051.95;;;14.53;61.86
62946;BME280;52164;52.212;-1.010;2023-04-15T11:09:00;101056.33;;;14.43;61.54
62946;BME280;52164;52.212;-1.010;2023-04-15T11:11:13;101060.16;;;14.36;61.51
62946;BME280;52164;52.212;-1.010;2023-04-15T11:13:46;101061.76;;;14.38;61.15
62946;BME280;52164;52.212;-1.010;2023-04-15T11:16:14;101060.29;;;14.44;61.17
62946;BME280;52164;52.212;-1.010;2023-04-15T11:18:39;101066.33;;;14.53;61.48
62946;BME280;52164;52.212;-1.010;2023-04-15T11:21:05;101068.81;;;14.57;61.30
62946;BME280;52164;52.212;-1.010;2023-04-15T11:23:32;101072.41;;;14.57;61.07
62946;BME280;52164;52.212;-1.010;2023-04-15T11:25:58;101072.61;;;14.51;60.62
62946;BME280;52164;52.212;-1.010;2023-04-15T11:28:25;101072.33;;;14.41;60.46
62946;BME280;52164;52.212;-1.010;2023-04-15T11:30:52;101076.88;;;14.34;60.94
62946;BME280;52164;52.212;-1.010;2023-04-15T11:33:18;101081.02;;;14.31;60.79
62946;BME280;52164;52.212;-1.010;2023-04-15T11:35:43;101084.27;;;14.30;60.89
62946;BME280;52164;52.212;-1.010;2023-04-15T11:38:11;101086.55;;;14.36;60.85
62946;BME280;52164;52.212;-1.010;2023-04-15T11:40:38;101088.09;;;14.48;60.95
62946;BME280;52164;52.212;-1.010;2023-04-15T11:45:30;101098.25;;;14.87;60.60
62946;BME280;52164;52.212;-1.010;2023-04-15T11:48:03;101098.33;;;15.18;60.59
62946;BME280;52164;52.212;-1.010;2023-04-15T11:50:29;101098.09;;;15.57;60.41
62946;BME280;52164;52.212;-1.010;2023-04-15T11:52:55;101096.86;;;15.87;59.83
62946;BME280;52164;52.212;-1.010;2023-04-15T11:55:20;101100.59;;;16.20;59.02
62946;BME280;52164;52.212;-1.010;2023-04-15T11:57:47;101102.19;;;16.34;57.76
62946;BME280;52164;52.212;-1.010;2023-04-15T12:00:13;101106.58;;;16.54;57.58
62946;BME280;52164;52.212;-1.010;2023-04-15T12:02:40;101107.18;;;16.62;56.36
62946;BME280;52164;52.212;-1.010;2023-04-15T12:05:06;101110.13;;;16.81;56.31
62946;BME280;52164;52.212;-1.010;2023-04-15T12:07:31;101111.55;;;16.95;55.40
62946;BME280;52164;52.212;-1.010;2023-04-15T12:09:57;101114.05;;;16.96;55.36
62946;BME280;52164;52.212;-1.010;2023-04-15T12:12:30;101115.44;;;17.10;55.42
62946;BME280;52164;52.212;-1.010;2023-04-15T12:14:55;101111.30;;;17.50;54.93
62946;BME280;52164;52.212;-1.010;2023-04-15T12:17:22;101109.95;;;17.82;55.02
62946;BME280;52164;52.212;-1.010;2023-04-15T12:19:48;101113.20;;;17.91;53.96
62946;BME280;52164;52.212;-1.010;2023-04-15T12:22:15;101105.41;;;17.93;53.75
62946;BME280;52164;52.212;-1.010;2023-04-15T12:24:41;101109.45;;;17.89;53.73
62946;BME280;52164;52.212;-1.010;2023-04-15T12:27:09;101112.52;;;17.79;54.10
62946;BME280;52164;52.212;-1.010;2023-04-15T12:29:35;101115.73;;;17.72;53.52
62946;BME280;52164;52.212;-1.010;2023-04-15T12:32:09;101123.95;;;17.58;53.15
62946;BME280;52164;52.212;-1.010;2023-04-15T12:34:36;101122.48;;;17.51;52.96
62946;BME280;52164;52.212;-1.010;2023-04-15T12:37:02;101124.23;;;17.43;53.06
62946;BME280;52164;52.212;-1.010;2023-04-15T12:39:29;101121.83;;;17.36;52.90
62946;BME280;52164;52.212;-1.010;2023-04-15T12:41:55;101127.26;;;17.26;53.10
62946;BME280;52164;52.212;-1.010;2023-04-15T12:44:22;101128.77;;;17.22;53.24
62946;BME280;52164;52.212;-1.010;2023-04-15T12:46:48;101131.90;;;17.17;52.71